sensor_id;sensor_type;location;lat;lon;timestamp;pressure;altitude;pressure_sealevel;temperature;humidity
57250;BME280;43102;52.014;-0.680;2023-01-28T00:00:00;102293;;;5.26;65.41
57250;BME280;43102;52.014;-0.680;2023-01-28T00:01:03;102293;;;5.26;65.41
57250;BME280;43102;52.014;-0.680;2023-01-28T00:02:00;102293;;;5.26;65.41
57250;BME280;43102;52.014;-0.680;2023-01-28T00:03:00;102293;;;5.26;65.41
57250;BME280;43102;52.014;-0.680;2023-01-28T00:04:00;102293;;;5.26;65.41
57250;BME280;43102;52.014;-0.680;2023-01-28T00:05:00;102298;;;5.19;64.93
57250;BME280;43102;52.014;-0.680;2023-01-28T00:06:00;102298;;;5.19;64.93
57250;BME280;43102;52.014;-0.680;2023-01-28T00:07:00;102298;;;5.19;64.93
57250;BME280;43102;52.014;-0.680;2023-01-28T00:08:00;102298;;;5.19;64.93
57250;BME280;43102;52.014;-0.680;2023-01-28T00:09:00;102298;;;5.19;64.93
57250;BME280;43102;52.014;-0.680;2023-01-28T00:10:00;102294;;;5.18;64.85
57250;BME280;43102;52.014;-0.680;2023-01-28T00:11:00;102294;;;5.18;64.85
57250;BME280;43102;52.014;-0.680;2023-01-28T00:12:00;102294;;;5.18;64.85
57250;BME280;43102;52.014;-0.680;2023-01-28T00:13:00;102294;;;5.18;64.85
57250;BME280;43102;52.014;-0.680;2023-01-28T00:14:00;102294;;;5.18;64.85
57250;BME280;43102;52.014;-0.680;2023-01-28T00:15:00;102293;;;5.20;64.81
57250;BME280;43102;52.014;-0.680;2023-01-28T00:16:01;102293;;;5.20;64.81
57250;BME280;43102;52.014;-0.680;2023-01-28T00:17:00;102293;;;5.20;64.81
57250;BME280;43102;52.014;-0.680;2023-01-28T00:18:00;102293;;;5.20;64.81
57250;BME280;43102;52.014;-0.680;2023-01-28T00:19:00;102293;;;5.20;64.81
57250;BME280;43102;52.014;-0.680;2023-01-28T00:20:00;102287;;;5.17;64.76
57250;BME280;43102;52.014;-0.680;2023-01-28T00:21:01;102287;;;5.17;64.76
57250;BME280;43102;52.014;-0.680;2023-01-28T00:22:00;102287;;;5.17;64.76
57250;BME280;43102;52.014;-0.680;2023-01-28T00:23:00;102287;;;5.17;64.76
57250;BME280;43102;52.014;-0.680;2023-01-28T00:24:00;102287;;;5.17;64.76
57250;BME280;43102;52.014;-0.680;2023-01-28T00:25:00;102280;;;5.16;64.80
57250;BME280;43102;52.014;-0.680;2023-01-28T00:26:01;102280;;;5.16;64.80
57250;BME280;43102;52.014;-0.680;2023-01-28T00:27:00;102280;;;5.16;64.80
57250;BME280;43102;52.014;-0.680;2023-01-28T00:28:00;102280;;;5.16;64.80
57250;BME280;43102;52.014;-0.680;2023-01-28T00:29:00;102280;;;5.16;64.80
57250;BME280;43102;52.014;-0.680;2023-01-28T00:30:00;102277;;;5.18;64.74
57250;BME280;43102;52.014;-0.680;2023-01-28T00:31:08;102277;;;5.18;64.74
57250;BME280;43102;52.014;-0.680;2023-01-28T00:32:00;102277;;;5.18;64.74
57250;BME280;43102;52.014;-0.680;2023-01-28T00:33:00;102277;;;5.18;64.74
57250;BME280;43102;52.014;-0.680;2023-01-28T00:34:00;102277;;;5.18;64.74
57250;BME280;43102;52.014;-0.680;2023-01-28T00:35:00;102279;;;5.19;64.64
57250;BME280;43102;52.014;-0.680;2023-01-28T00:36:00;102279;;;5.19;64.64
57250;BME280;43102;52.014;-0.680;2023-01-28T00:37:00;102279;;;5.19;64.64
57250;BME280;43102;52.014;-0.680;2023-01-28T00:38:00;102279;;;5.19;64.64
57250;BME280;43102;52.014;-0.680;2023-01-28T00:39:00;102279;;;5.19;64.64
57250;BME280;43102;52.014;-0.680;2023-01-28T00:40:00;102278;;;5.17;64.83
57250;BME280;43102;52.014;-0.680;2023-01-28T00:41:08;102278;;;5.17;64.83
57250;BME280;43102;52.014;-0.680;2023-01-28T00:42:00;102278;;;5.17;64.83
57250;BME280;43102;52.014;-0.680;2023-01-28T00:43:00;102278;;;5.17;64.83
57250;BME280;43102;52.014;-0.680;2023-01-28T00:44:00;102278;;;5.17;64.83
57250;BME280;43102;52.014;-0.680;2023-01-28T00:45:00;102278;;;5.13;64.80
57250;BME280;43102;52.014;-0.680;2023-01-28T00:46:00;102278;;;5.13;64.80
57250;BME280;43102;52.014;-0.680;2023-01-28T00:47:00;102278;;;5.13;64.80
57250;BME280;43102;52.014;-0.680;2023-01-28T00:48:00;102278;;;5.13;64.80
57250;BME280;43102;52.014;-0.680;2023-01-28T00:49:00;102278;;;5.13;64.80
57250;BME280;43102;52.014;-0.680;2023-01-28T00:50:00;102288;;;5.07;64.33
57250;BME280;43102;52.014;-0.680;2023-01-28T00:51:00;102288;;;5.07;64.33
57250;BME280;43102;52.014;-0.680;2023-01-28T00:52:00;102288;;;5.07;64.33
57250;BME280;43102;52.014;-0.680;2023-01-28T00:53:00;102288;;;5.07;64.33
57250;BME280;43102;52.014;-0.680;2023-01-28T00:54:00;102288;;;5.07;64.33
57250;BME280;43102;52.014;-0.680;2023-01-28T00:55:00;102294;;;5.04;64.15
57250;BME280;43102;52.014;-0.680;2023-01-28T00:56:00;102294;;;5.04;64.15
57250;BME280;43102;52.014;-0.680;2023-01-28T00:57:00;102294;;;5.04;64.15
57250;BME280;43102;52.014;-0.680;2023-01-28T00:58:00;102294;;;5.04;64.15
57250;BME280;43102;52.014;-0.680;2023-01-28T00:59:00;102294;;;5.04;64.15
57250;BME280;43102;52.014;-0.680;2023-01-28T01:00:00;102286;;;5.05;63.80
57250;BME280;43102;52.014;-0.680;2023-01-28T01:02:00;102286;;;5.05;63.80
57250;BME280;43102;52.014;-0.680;2023-01-28T01:03:00;102286;;;5.05;63.80
57250;BME280;43102;52.014;-0.680;2023-01-28T01:04:00;102286;;;5.05;63.80
57250;BME280;43102;52.014;-0.680;2023-01-28T01:05:00;102293;;;5.10;64.16
57250;BME280;43102;52.014;-0.680;2023-01-28T01:06:00;102293;;;5.10;64.16
57250;BME280;43102;52.014;-0.680;2023-01-28T01:07:00;102293;;;5.10;64.16
57250;BME280;43102;52.014;-0.680;2023-01-28T01:08:00;102293;;;5.10;64.16
57250;BME280;43102;52.014;-0.680;2023-01-28T01:09:01;102293;;;5.10;64.16
57250;BME280;43102;52.014;-0.680;2023-01-28T01:10:00;102283;;;5.08;62.77
57250;BME280;43102;52.014;-0.680;2023-01-28T01:11:00;102283;;;5.08;62.77
57250;BME280;43102;52.014;-0.680;2023-01-28T01:12:00;102283;;;5.08;62.77
57250;BME280;43102;52.014;-0.680;2023-01-28T01:13:00;102283;;;5.08;62.77
57250;BME280;43102;52.014;-0.680;2023-01-28T01:14:00;102283;;;5.08;62.77
57250;BME280;43102;52.014;-0.680;2023-01-28T01:15:00;102282;;;5.13;62.68
57250;BME280;43102;52.014;-0.680;2023-01-28T01:16:01;102282;;;5.13;62.68
57250;BME280;43102;52.014;-0.680;2023-01-28T01:17:00;102282;;;5.13;62.68
57250;BME280;43102;52.014;-0.680;2023-01-28T01:18:00;102282;;;5.13;62.68
57250;BME280;43102;52.014;-0.680;2023-01-28T01:19:00;102282;;;5.13;62.68
57250;BME280;43102;52.014;-0.680;2023-01-28T01:20:00;102279;;;5.15;62.41
57250;BME280;43102;52.014;-0.680;2023-01-28T01:21:00;102279;;;5.15;62.41
57250;BME280;43102;52.014;-0.680;2023-01-28T01:22:00;102279;;;5.15;62.41
57250;BME280;43102;52.014;-0.680;2023-01-28T01:23:00;102279;;;5.15;62.41
57250;BME280;43102;52.014;-0.680;2023-01-28T01:24:00;102279;;;5.15;62.41
57250;BME280;43102;52.014;-0.680;2023-01-28T01:25:00;102266;;;5.18;63.01
57250;BME280;43102;52.014;-0.680;2023-01-28T01:26:00;102266;;;5.18;63.01
57250;BME280;43102;52.014;-0.680;2023-01-28T01:27:00;102266;;;5.18;63.01
57250;BME280;43102;52.014;-0.680;2023-01-28T01:28:00;102266;;;5.18;63.01
57250;BME280;43102;52.014;-0.680;2023-01-28T01:29:00;102266;;;5.18;63.01
57250;BME280;43102;52.014;-0.680;2023-01-28T01:30:00;102263;;;5.16;63.05
57250;BME280;43102;52.014;-0.680;2023-01-28T01:31:01;102263;;;5.16;63.05
57250;BME280;43102;52.014;-0.680;2023-01-28T01:32:00;102263;;;5.16;63.05
57250;BME280;43102;52.014;-0.680;2023-01-28T01:33:00;102263;;;5.16;63.05
57250;BME280;43102;52.014;-0.680;2023-01-28T01:34:00;102263;;;5.16;63.05
57250;BME280;43102;52.014;-0.680;2023-01-28T01:35:00;102262;;;5.18;62.92
57250;BME280;43102;52.014;-0.680;2023-01-28T01:36:00;102262;;;5.18;62.92
57250;BME280;43102;52.014;-0.680;2023-01-28T01:37:00;102262;;;5.18;62.92
57250;BME280;43102;52.014;-0.680;2023-01-28T01:38:00;102262;;;5.18;62.92
57250;BME280;43102;52.014;-0.680;2023-01-28T01:39:00;102262;;;5.18;62.92
57250;BME280;43102;52.014;-0.680;2023-01-28T01:40:00;102258;;;5.19;63.31
57250;BME280;43102;52.014;-0.680;2023-01-28T01:41:00;102258;;;5.19;63.31
57250;BME280;43102;52.014;-0.680;2023-01-28T01:42:00;102258;;;5.19;63.31
57250;BME280;43102;52.014;-0.680;2023-01-28T01:43:00;102258;;;5.19;63.31
57250;BME280;43102;52.014;-0.680;2023-01-28T01:44:01;102258;;;5.19;63.31
57250;BME280;43102;52.014;-0.680;2023-01-28T01:45:01;102249;;;5.12;62.94
57250;BME280;43102;52.014;-0.680;2023-01-28T01:46:00;102249;;;5.12;62.94
57250;BME280;43102;52.014;-0.680;2023-01-28T01:47:00;102249;;;5.12;62.94
57250;BME280;43102;52.014;-0.680;2023-01-28T01:48:02;102249;;;5.12;62.94
57250;BME280;43102;52.014;-0.680;2023-01-28T01:49:03;102249;;;5.12;62.94
57250;BME280;43102;52.014;-0.680;2023-01-28T01:50:01;102241;;;5.08;61.90
57250;BME280;43102;52.014;-0.680;2023-01-28T01:51:01;102241;;;5.08;61.90
57250;BME280;43102;52.014;-0.680;2023-01-28T01:52:02;102241;;;5.08;61.90
57250;BME280;43102;52.014;-0.680;2023-01-28T01:53:08;102241;;;5.08;61.90
57250;BME280;43102;52.014;-0.680;2023-01-28T01:54:00;102241;;;5.08;61.90
57250;BME280;43102;52.014;-0.680;2023-01-28T01:55:00;102251;;;5.04;61.78
57250;BME280;43102;52.014;-0.680;2023-01-28T01:56:01;102251;;;5.04;61.78
57250;BME280;43102;52.014;-0.680;2023-01-28T01:57:00;102251;;;5.04;61.78
57250;BME280;43102;52.014;-0.680;2023-01-28T01:58:02;102251;;;5.04;61.78
57250;BME280;43102;52.014;-0.680;2023-01-28T01:59:00;102251;;;5.04;61.78
57250;BME280;43102;52.014;-0.680;2023-01-28T02:00:00;102261;;;5.02;61.87
57250;BME280;43102;52.014;-0.680;2023-01-28T02:01:00;102261;;;5.02;61.87
57250;BME280;43102;52.014;-0.680;2023-01-28T02:02:00;102261;;;5.02;61.87
57250;BME280;43102;52.014;-0.680;2023-01-28T02:03:00;102261;;;5.02;61.87
57250;BME280;43102;52.014;-0.680;2023-01-28T02:04:04;102261;;;5.02;61.87
57250;BME280;43102;52.014;-0.680;2023-01-28T02:05:00;102255;;;5.05;62.05
57250;BME280;43102;52.014;-0.680;2023-01-28T02:06:00;102255;;;5.05;62.05
57250;BME280;43102;52.014;-0.680;2023-01-28T02:07:00;102255;;;5.05;62.05
57250;BME280;43102;52.014;-0.680;2023-01-28T02:08:00;102255;;;5.05;62.05
57250;BME280;43102;52.014;-0.680;2023-01-28T02:09:00;102255;;;5.05;62.05
57250;BME280;43102;52.014;-0.680;2023-01-28T02:10:00;102262;;;5.06;62.77
57250;BME280;43102;52.014;-0.680;2023-01-28T02:11:01;102262;;;5.06;62.77
57250;BME280;43102;52.014;-0.680;2023-01-28T02:12:02;102262;;;5.06;62.77
57250;BME280;43102;52.014;-0.680;2023-01-28T02:13:00;102262;;;5.06;62.77
57250;BME280;43102;52.014;-0.680;2023-01-28T02:14:00;102262;;;5.06;62.77
57250;BME280;43102;52.014;-0.680;2023-01-28T02:15:04;102261;;;5.02;63.15
57250;BME280;43102;52.014;-0.680;2023-01-28T02:16:00;102261;;;5.02;63.15
57250;BME280;43102;52.014;-0.680;2023-01-28T02:17:00;102261;;;5.02;63.15
57250;BME280;43102;52.014;-0.680;2023-01-28T02:18:00;102261;;;5.02;63.15
57250;BME280;43102;52.014;-0.680;2023-01-28T02:19:00;102261;;;5.02;63.15
57250;BME280;43102;52.014;-0.680;2023-01-28T02:20:01;102267;;;5.02;63.57
57250;BME280;43102;52.014;-0.680;2023-01-28T02:22:04;102267;;;5.02;63.57
57250;BME280;43102;52.014;-0.680;2023-01-28T02:24:06;102267;;;5.02;63.57
57250;BME280;43102;52.014;-0.680;2023-01-28T02:25:06;102276;;;5.02;63.95
57250;BME280;43102;52.014;-0.680;2023-01-28T02:26:50;102276;;;5.02;63.95
57250;BME280;43102;52.014;-0.680;2023-01-28T02:30:05;102278;;;4.97;64.09
57250;BME280;43102;52.014;-0.680;2023-01-28T02:31:09;102278;;;4.97;64.09
57250;BME280;43102;52.014;-0.680;2023-01-28T02:33:02;102278;;;4.97;64.09
57250;BME280;43102;52.014;-0.680;2023-01-28T02:34:03;102278;;;4.97;64.09
57250;BME280;43102;52.014;-0.680;2023-01-28T02:36:02;102279;;;4.97;64.29
57250;BME280;43102;52.014;-0.680;2023-01-28T02:39:00;102279;;;4.97;64.29
57250;BME280;43102;52.014;-0.680;2023-01-28T02:40:02;102278;;;4.98;64.61
57250;BME280;43102;52.014;-0.680;2023-01-28T02:41:04;102278;;;4.98;64.61
57250;BME280;43102;52.014;-0.680;2023-01-28T02:42:03;102278;;;4.98;64.61
57250;BME280;43102;52.014;-0.680;2023-01-28T02:43:00;102278;;;4.98;64.61
57250;BME280;43102;52.014;-0.680;2023-01-28T02:44:00;102278;;;4.98;64.61
57250;BME280;43102;52.014;-0.680;2023-01-28T02:45:00;102282;;;5.03;64.84
57250;BME280;43102;52.014;-0.680;2023-01-28T02:46:01;102282;;;5.03;64.84
57250;BME280;43102;52.014;-0.680;2023-01-28T02:47:00;102282;;;5.03;64.84
57250;BME280;43102;52.014;-0.680;2023-01-28T02:48:00;102282;;;5.03;64.84
57250;BME280;43102;52.014;-0.680;2023-01-28T02:49:00;102282;;;5.03;64.84
57250;BME280;43102;52.014;-0.680;2023-01-28T02:50:01;102272;;;5.00;64.95
57250;BME280;43102;52.014;-0.680;2023-01-28T02:51:02;102272;;;5.00;64.95
57250;BME280;43102;52.014;-0.680;2023-01-28T02:54:03;102272;;;5.00;64.95
57250;BME280;43102;52.014;-0.680;2023-01-28T02:55:03;102271;;;4.97;65.18
57250;BME280;43102;52.014;-0.680;2023-01-28T02:58:04;102271;;;4.97;65.18
57250;BME280;43102;52.014;-0.680;2023-01-28T02:59:10;102271;;;4.97;65.18
57250;BME280;43102;52.014;-0.680;2023-01-28T03:03:04;102277;;;4.98;65.45
57250;BME280;43102;52.014;-0.680;2023-01-28T03:04:02;102277;;;4.98;65.45
57250;BME280;43102;52.014;-0.680;2023-01-28T03:06:01;102281;;;4.95;65.61
57250;BME280;43102;52.014;-0.680;2023-01-28T03:07:01;102281;;;4.95;65.61
57250;BME280;43102;52.014;-0.680;2023-01-28T03:08:00;102281;;;4.95;65.61
57250;BME280;43102;52.014;-0.680;2023-01-28T03:09:01;102281;;;4.95;65.61
57250;BME280;43102;52.014;-0.680;2023-01-28T03:10:01;102282;;;4.92;65.73
57250;BME280;43102;52.014;-0.680;2023-01-28T03:11:00;102282;;;4.92;65.73
57250;BME280;43102;52.014;-0.680;2023-01-28T03:12:02;102282;;;4.92;65.73
57250;BME280;43102;52.014;-0.680;2023-01-28T03:13:00;102282;;;4.92;65.73
57250;BME280;43102;52.014;-0.680;2023-01-28T03:14:00;102282;;;4.92;65.73
57250;BME280;43102;52.014;-0.680;2023-01-28T03:15:02;102291;;;4.95;65.92
57250;BME280;43102;52.014;-0.680;2023-01-28T03:16:00;102291;;;4.95;65.92
57250;BME280;43102;52.014;-0.680;2023-01-28T03:17:00;102291;;;4.95;65.92
57250;BME280;43102;52.014;-0.680;2023-01-28T03:19:00;102291;;;4.95;65.92
57250;BME280;43102;52.014;-0.680;2023-01-28T03:20:00;102291;;;4.95;66.17
57250;BME280;43102;52.014;-0.680;2023-01-28T03:21:04;102291;;;4.95;66.17
57250;BME280;43102;52.014;-0.680;2023-01-28T03:22:00;102291;;;4.95;66.17
57250;BME280;43102;52.014;-0.680;2023-01-28T03:23:00;102291;;;4.95;66.17
57250;BME280;43102;52.014;-0.680;2023-01-28T03:24:16;102291;;;4.95;66.17
57250;BME280;43102;52.014;-0.680;2023-01-28T03:25:00;102291;;;4.92;66.40
57250;BME280;43102;52.014;-0.680;2023-01-28T03:26:00;102291;;;4.92;66.40
57250;BME280;43102;52.014;-0.680;2023-01-28T03:27:01;102291;;;4.92;66.40
57250;BME280;43102;52.014;-0.680;2023-01-28T03:28:00;102291;;;4.92;66.40
57250;BME280;43102;52.014;-0.680;2023-01-28T03:29:05;102291;;;4.92;66.40
57250;BME280;43102;52.014;-0.680;2023-01-28T03:30:01;102293;;;4.87;66.12
57250;BME280;43102;52.014;-0.680;2023-01-28T03:32:00;102293;;;4.87;66.12
57250;BME280;43102;52.014;-0.680;2023-01-28T03:33:00;102293;;;4.87;66.12
57250;BME280;43102;52.014;-0.680;2023-01-28T03:34:00;102293;;;4.87;66.12
57250;BME280;43102;52.014;-0.680;2023-01-28T03:35:00;102287;;;4.90;66.14
57250;BME280;43102;52.014;-0.680;2023-01-28T03:36:00;102287;;;4.90;66.14
57250;BME280;43102;52.014;-0.680;2023-01-28T03:37:00;102287;;;4.90;66.14
57250;BME280;43102;52.014;-0.680;2023-01-28T03:38:00;102287;;;4.90;66.14
57250;BME280;43102;52.014;-0.680;2023-01-28T03:39:01;102287;;;4.90;66.14
57250;BME280;43102;52.014;-0.680;2023-01-28T03:40:01;102294;;;4.90;65.99
57250;BME280;43102;52.014;-0.680;2023-01-28T03:41:00;102294;;;4.90;65.99
57250;BME280;43102;52.014;-0.680;2023-01-28T03:42:03;102294;;;4.90;65.99
57250;BME280;43102;52.014;-0.680;2023-01-28T03:43:00;102294;;;4.90;65.99
57250;BME280;43102;52.014;-0.680;2023-01-28T03:44:00;102294;;;4.90;65.99
57250;BME280;43102;52.014;-0.680;2023-01-28T03:45:00;102287;;;4.94;66.15
57250;BME280;43102;52.014;-0.680;2023-01-28T03:46:00;102287;;;4.94;66.15
57250;BME280;43102;52.014;-0.680;2023-01-28T03:47:00;102287;;;4.94;66.15
57250;BME280;43102;52.014;-0.680;2023-01-28T03:48:00;102287;;;4.94;66.15
57250;BME280;43102;52.014;-0.680;2023-01-28T03:49:00;102287;;;4.94;66.15
57250;BME280;43102;52.014;-0.680;2023-01-28T03:50:00;102278;;;4.95;66.33
57250;BME280;43102;52.014;-0.680;2023-01-28T03:51:00;102278;;;4.95;66.33
57250;BME280;43102;52.014;-0.680;2023-01-28T03:52:00;102278;;;4.95;66.33
57250;BME280;43102;52.014;-0.680;2023-01-28T03:53:00;102278;;;4.95;66.33
57250;BME280;43102;52.014;-0.680;2023-01-28T03:54:00;102278;;;4.95;66.33
57250;BME280;43102;52.014;-0.680;2023-01-28T03:55:00;102283;;;4.90;66.56
57250;BME280;43102;52.014;-0.680;2023-01-28T03:56:00;102283;;;4.90;66.56
57250;BME280;43102;52.014;-0.680;2023-01-28T03:57:00;102283;;;4.90;66.56
57250;BME280;43102;52.014;-0.680;2023-01-28T03:58:00;102283;;;4.90;66.56
57250;BME280;43102;52.014;-0.680;2023-01-28T03:59:00;102283;;;4.90;66.56
57250;BME280;43102;52.014;-0.680;2023-01-28T04:00:00;102272;;;4.92;66.67
57250;BME280;43102;52.014;-0.680;2023-01-28T04:01:00;102272;;;4.92;66.67
57250;BME280;43102;52.014;-0.680;2023-01-28T04:02:00;102272;;;4.92;66.67
57250;BME280;43102;52.014;-0.680;2023-01-28T04:03:00;102272;;;4.92;66.67
57250;BME280;43102;52.014;-0.680;2023-01-28T04:04:00;102272;;;4.92;66.67
57250;BME280;43102;52.014;-0.680;2023-01-28T04:05:00;102268;;;4.91;66.74
57250;BME280;43102;52.014;-0.680;2023-01-28T04:06:01;102268;;;4.91;66.74
57250;BME280;43102;52.014;-0.680;2023-01-28T04:07:00;102268;;;4.91;66.74
57250;BME280;43102;52.014;-0.680;2023-01-28T04:08:00;102268;;;4.91;66.74
57250;BME280;43102;52.014;-0.680;2023-01-28T04:09:00;102268;;;4.91;66.74
57250;BME280;43102;52.014;-0.680;2023-01-28T04:10:00;102261;;;4.93;66.96
57250;BME280;43102;52.014;-0.680;2023-01-28T04:11:00;102261;;;4.93;66.96
57250;BME280;43102;52.014;-0.680;2023-01-28T04:12:00;102261;;;4.93;66.96
57250;BME280;43102;52.014;-0.680;2023-01-28T04:13:00;102261;;;4.93;66.96
57250;BME280;43102;52.014;-0.680;2023-01-28T04:14:00;102261;;;4.93;66.96
57250;BME280;43102;52.014;-0.680;2023-01-28T04:15:00;102270;;;4.93;67.15
57250;BME280;43102;52.014;-0.680;2023-01-28T04:16:00;102270;;;4.93;67.15
57250;BME280;43102;52.014;-0.680;2023-01-28T04:17:00;102270;;;4.93;67.15
57250;BME280;43102;52.014;-0.680;2023-01-28T04:18:00;102270;;;4.93;67.15
57250;BME280;43102;52.014;-0.680;2023-01-28T04:19:00;102270;;;4.93;67.15
57250;BME280;43102;52.014;-0.680;2023-01-28T04:20:00;102267;;;4.92;67.33
57250;BME280;43102;52.014;-0.680;2023-01-28T04:21:00;102267;;;4.92;67.33
57250;BME280;43102;52.014;-0.680;2023-01-28T04:22:00;102267;;;4.92;67.33
57250;BME280;43102;52.014;-0.680;2023-01-28T04:23:00;102267;;;4.92;67.33
57250;BME280;43102;52.014;-0.680;2023-01-28T04:24:00;102267;;;4.92;67.33
57250;BME280;43102;52.014;-0.680;2023-01-28T04:25:00;102259;;;4.87;67.28
57250;BME280;43102;52.014;-0.680;2023-01-28T04:26:00;102259;;;4.87;67.28
57250;BME280;43102;52.014;-0.680;2023-01-28T04:27:00;102259;;;4.87;67.28
57250;BME280;43102;52.014;-0.680;2023-01-28T04:28:00;102259;;;4.87;67.28
57250;BME280;43102;52.014;-0.680;2023-01-28T04:29:00;102259;;;4.87;67.28
57250;BME280;43102;52.014;-0.680;2023-01-28T04:30:00;102247;;;4.92;67.36
57250;BME280;43102;52.014;-0.680;2023-01-28T04:31:00;102247;;;4.92;67.36
57250;BME280;43102;52.014;-0.680;2023-01-28T04:32:00;102247;;;4.92;67.36
57250;BME280;43102;52.014;-0.680;2023-01-28T04:33:00;102247;;;4.92;67.36
57250;BME280;43102;52.014;-0.680;2023-01-28T04:34:00;102247;;;4.92;67.36
57250;BME280;43102;52.014;-0.680;2023-01-28T04:35:00;102248;;;4.91;67.60
57250;BME280;43102;52.014;-0.680;2023-01-28T04:36:00;102248;;;4.91;67.60
57250;BME280;43102;52.014;-0.680;2023-01-28T04:37:00;102248;;;4.91;67.60
57250;BME280;43102;52.014;-0.680;2023-01-28T04:38:00;102248;;;4.91;67.60
57250;BME280;43102;52.014;-0.680;2023-01-28T04:39:00;102248;;;4.91;67.60
57250;BME280;43102;52.014;-0.680;2023-01-28T04:40:00;102256;;;4.74;67.60
57250;BME280;43102;52.014;-0.680;2023-01-28T04:41:00;102256;;;4.74;67.60
57250;BME280;43102;52.014;-0.680;2023-01-28T04:42:00;102256;;;4.74;67.60
57250;BME280;43102;52.014;-0.680;2023-01-28T04:43:00;102256;;;4.74;67.60
57250;BME280;43102;52.014;-0.680;2023-01-28T04:44:00;102256;;;4.74;67.60
57250;BME280;43102;52.014;-0.680;2023-01-28T04:45:00;102255;;;4.78;67.67
57250;BME280;43102;52.014;-0.680;2023-01-28T04:46:00;102255;;;4.78;67.67
57250;BME280;43102;52.014;-0.680;2023-01-28T04:47:00;102255;;;4.78;67.67
57250;BME280;43102;52.014;-0.680;2023-01-28T04:48:00;102255;;;4.78;67.67
57250;BME280;43102;52.014;-0.680;2023-01-28T04:49:00;102255;;;4.78;67.67
57250;BME280;43102;52.014;-0.680;2023-01-28T04:50:00;102254;;;4.82;67.77
57250;BME280;43102;52.014;-0.680;2023-01-28T04:51:00;102254;;;4.82;67.77
57250;BME280;43102;52.014;-0.680;2023-01-28T04:52:00;102254;;;4.82;67.77
57250;BME280;43102;52.014;-0.680;2023-01-28T04:53:00;102254;;;4.82;67.77
57250;BME280;43102;52.014;-0.680;2023-01-28T04:54:00;102254;;;4.82;67.77
57250;BME280;43102;52.014;-0.680;2023-01-28T04:55:00;102257;;;4.83;67.90
57250;BME280;43102;52.014;-0.680;2023-01-28T04:56:00;102257;;;4.83;67.90
57250;BME280;43102;52.014;-0.680;2023-01-28T04:57:00;102257;;;4.83;67.90
57250;BME280;43102;52.014;-0.680;2023-01-28T04:58:00;102257;;;4.83;67.90
57250;BME280;43102;52.014;-0.680;2023-01-28T04:59:00;102257;;;4.83;67.90
57250;BME280;43102;52.014;-0.680;2023-01-28T05:00:00;102255;;;4.86;67.92
57250;BME280;43102;52.014;-0.680;2023-01-28T05:01:00;102255;;;4.86;67.92
57250;BME280;43102;52.014;-0.680;2023-01-28T05:02:00;102255;;;4.86;67.92
57250;BME280;43102;52.014;-0.680;2023-01-28T05:03:00;102255;;;4.86;67.92
57250;BME280;43102;52.014;-0.680;2023-01-28T05:04:00;102255;;;4.86;67.92
57250;BME280;43102;52.014;-0.680;2023-01-28T05:05:00;102260;;;4.88;68.00
57250;BME280;43102;52.014;-0.680;2023-01-28T05:06:00;102260;;;4.88;68.00
57250;BME280;43102;52.014;-0.680;2023-01-28T05:07:00;102260;;;4.88;68.00
57250;BME280;43102;52.014;-0.680;2023-01-28T05:08:00;102260;;;4.88;68.00
57250;BME280;43102;52.014;-0.680;2023-01-28T05:09:00;102260;;;4.88;68.00
57250;BME280;43102;52.014;-0.680;2023-01-28T05:10:00;102276;;;4.83;68.44
57250;BME280;43102;52.014;-0.680;2023-01-28T05:11:00;102276;;;4.83;68.44
57250;BME280;43102;52.014;-0.680;2023-01-28T05:12:00;102276;;;4.83;68.44
57250;BME280;43102;52.014;-0.680;2023-01-28T05:13:00;102276;;;4.83;68.44
57250;BME280;43102;52.014;-0.680;2023-01-28T05:14:00;102276;;;4.83;68.44
57250;BME280;43102;52.014;-0.680;2023-01-28T05:15:00;102277;;;4.78;68.81
57250;BME280;43102;52.014;-0.680;2023-01-28T05:16:00;102277;;;4.78;68.81
57250;BME280;43102;52.014;-0.680;2023-01-28T05:17:00;102277;;;4.78;68.81
57250;BME280;43102;52.014;-0.680;2023-01-28T05:18:00;102277;;;4.78;68.81
57250;BME280;43102;52.014;-0.680;2023-01-28T05:19:00;102277;;;4.78;68.81
57250;BME280;43102;52.014;-0.680;2023-01-28T05:20:00;102275;;;4.77;68.78
57250;BME280;43102;52.014;-0.680;2023-01-28T05:21:00;102275;;;4.77;68.78
57250;BME280;43102;52.014;-0.680;2023-01-28T05:22:00;102275;;;4.77;68.78
57250;BME280;43102;52.014;-0.680;2023-01-28T05:23:00;102275;;;4.77;68.78
57250;BME280;43102;52.014;-0.680;2023-01-28T05:24:00;102275;;;4.77;68.78
57250;BME280;43102;52.014;-0.680;2023-01-28T05:25:00;102274;;;4.77;68.76
57250;BME280;43102;52.014;-0.680;2023-01-28T05:26:00;102274;;;4.77;68.76
57250;BME280;43102;52.014;-0.680;2023-01-28T05:27:00;102274;;;4.77;68.76
57250;BME280;43102;52.014;-0.680;2023-01-28T05:28:00;102274;;;4.77;68.76
57250;BME280;43102;52.014;-0.680;2023-01-28T05:29:00;102274;;;4.77;68.76
57250;BME280;43102;52.014;-0.680;2023-01-28T05:30:00;102280;;;4.78;68.82
57250;BME280;43102;52.014;-0.680;2023-01-28T05:31:02;102280;;;4.78;68.82
57250;BME280;43102;52.014;-0.680;2023-01-28T05:32:00;102280;;;4.78;68.82
57250;BME280;43102;52.014;-0.680;2023-01-28T05:33:00;102280;;;4.78;68.82
57250;BME280;43102;52.014;-0.680;2023-01-28T05:34:00;102280;;;4.78;68.82
57250;BME280;43102;52.014;-0.680;2023-01-28T05:35:00;102268;;;4.73;69.22
57250;BME280;43102;52.014;-0.680;2023-01-28T05:36:00;102268;;;4.73;69.22
57250;BME280;43102;52.014;-0.680;2023-01-28T05:37:00;102268;;;4.73;69.22
57250;BME280;43102;52.014;-0.680;2023-01-28T05:38:00;102268;;;4.73;69.22
57250;BME280;43102;52.014;-0.680;2023-01-28T05:39:00;102268;;;4.73;69.22
57250;BME280;43102;52.014;-0.680;2023-01-28T05:40:00;102280;;;4.68;69.17
57250;BME280;43102;52.014;-0.680;2023-01-28T05:41:00;102280;;;4.68;69.17
57250;BME280;43102;52.014;-0.680;2023-01-28T05:42:00;102280;;;4.68;69.17
57250;BME280;43102;52.014;-0.680;2023-01-28T05:43:00;102280;;;4.68;69.17
57250;BME280;43102;52.014;-0.680;2023-01-28T05:44:00;102280;;;4.68;69.17
57250;BME280;43102;52.014;-0.680;2023-01-28T05:45:00;102274;;;4.68;69.17
57250;BME280;43102;52.014;-0.680;2023-01-28T05:46:00;102274;;;4.68;69.17